Godman Army Air Field
KFTK : now visible

Airfield :











YOU CAN JOIN US ON...

 
LOGIN :

Register | Disclaimer

   EN    FR    IT 

 









Legend :    VFR   Marginal VFR   IFR   Intensive IFR   Very Intensive IFR
Visi :
Ceiling :
>= 8 km
>= 3000ft
5 to 8 km
1000 to 3000 ft
1500m to 5 km
500 to 1000 ft
800 to 1500m
200 to 500 ft
< 800m
< 200 ft
Symbols :   Thunderstorms  Fog  Heavy snow  Heavy precipitations  Wind > 20 kt






- Airport Elevation : 756 ft


KFTK - Godman Army Air Field

CURRENT METAR :
  • 141656Z AUTO 20009KT 10SM CLR 07/M05 A3026 RMK AO2 SLP256 T00651049

EXPIRED METARs :
  • 141556Z AUTO 23011KT 10SM CLR 05/M05 A3026 RMK AO2 SLP257 T00541047

TAF TAF KFTK
Valid from the 14 at 09:00 until the 15 at 15:00 UTC


140900Z 1409/1515 22006KT 9999 FEW060 BKN220 QNH3018INS
BECMG 1422/1423 23006KT 9999 SCT040 BKN055 QNH3025INS
TEMPO 1510/1513 4800 BR BKN006 OVC010 TX07/1420Z TNM01/1409Z



MET'MAP, your aeronautical weather chart ! - Copyright ORBIFLY December 2007 - Disclaimer

ORBIFLY MET'MAP TEAM :

Programming & Development : Alexandra Zaïnal
Concept & Development : Baudouin d'Aumeries
Co-Development & Prog : Marc-Olivier Méhu
Technical & hardware support : Manuel Goepfert

Contact : metmap@orbifly.com




SOURCES & CREDITS :

   NOAA       Earth
Advisory